createdAt,value
2023-04-14T00:02:09.299Z,21.40
2023-04-14T00:06:07.258Z,19.70
2023-04-14T00:10:05.364Z,22.40
2023-04-14T00:14:04.229Z,22.10
2023-04-14T00:18:02.419Z,22.40
2023-04-14T00:22:00.271Z,24.20
2023-04-14T00:25:58.269Z,22.40
2023-04-14T00:29:56.186Z,24.70
2023-04-14T00:33:54.163Z,22.70
2023-04-14T00:37:52.310Z,24.20
2023-04-14T00:41:50.203Z,22.90
2023-04-14T00:45:59.311Z,23.80
2023-04-14T00:49:57.195Z,21.60
2023-04-14T00:53:55.289Z,24.40
2023-04-14T00:57:54.149Z,24.40
2023-04-14T01:01:52.338Z,24.40
2023-04-14T01:05:50.139Z,22.20
2023-04-14T01:09:48.221Z,23.00
2023-04-14T01:13:56.145Z,22.50
2023-04-14T01:18:14.184Z,24.80
2023-04-14T01:22:17.177Z,23.90
2023-04-14T01:26:43.213Z,28.70
2023-04-14T01:30:49.123Z,24.30
2023-04-14T01:35:05.195Z,29.00
2023-04-14T01:39:05.108Z,33.80
2023-04-14T01:43:07.146Z,32.70
2023-04-14T01:47:08.138Z,30.70
2023-04-14T01:51:06.176Z,29.00
2023-04-14T01:55:06.141Z,28.20
2023-04-14T01:59:08.118Z,24.80
2023-04-14T02:03:08.251Z,27.40
2023-04-14T02:07:06.237Z,29.40
2023-04-14T02:11:07.090Z,25.60
2023-04-14T02:15:08.081Z,25.90
2023-04-14T02:19:07.215Z,28.40
2023-04-14T02:23:05.058Z,26.40
2023-04-14T02:27:30.049Z,26.10
2023-04-14T02:31:30.138Z,23.20
2023-04-14T02:35:37.045Z,25.20
2023-04-14T02:43:47.009Z,27.60
2023-04-14T02:47:49.100Z,26.30
2023-04-14T02:51:51.012Z,23.90
2023-04-14T02:55:50.067Z,26.10
2023-04-14T02:59:51.253Z,25.10
2023-04-14T03:03:51.093Z,27.50
2023-04-14T03:07:51.029Z,26.70
2023-04-14T03:11:51.088Z,27.10
2023-04-14T03:15:50.040Z,29.30
2023-04-14T03:19:48.994Z,30.50
2023-04-14T03:23:49.964Z,28.90
2023-04-14T03:27:49.046Z,28.90
2023-04-14T03:31:48.007Z,32.90
2023-04-14T03:35:46.989Z,30.50
2023-04-14T03:39:46.978Z,33.30
2023-04-14T03:43:47.001Z,30.90
2023-04-14T03:47:45.153Z,31.80
2023-04-14T03:51:45.957Z,31.40
2023-04-14T03:55:46.895Z,30.00
2023-04-14T03:59:45.988Z,29.80
2023-04-14T04:03:48.079Z,28.30
2023-04-14T04:07:46.938Z,30.90
2023-04-14T04:11:45.962Z,29.40
2023-04-14T04:15:46.014Z,29.40
2023-04-14T04:19:46.016Z,33.70
2023-04-14T04:23:46.935Z,26.30
2023-04-14T04:27:45.865Z,24.60
2023-04-14T04:31:43.933Z,22.60
2023-04-14T04:35:42.916Z,22.10
2023-04-14T04:39:40.917Z,19.50
2023-04-14T04:43:39.860Z,20.20
2023-04-14T04:47:37.949Z,19.50
2023-04-14T04:51:36.874Z,24.30
2023-04-14T04:55:34.987Z,21.20
2023-04-14T04:59:32.868Z,25.10
2023-04-14T05:03:30.966Z,20.40
2023-04-14T05:07:28.830Z,23.50
2023-04-14T05:11:26.910Z,27.10
2023-04-14T05:15:24.828Z,32.70
2023-04-14T05:19:22.876Z,36.00
2023-04-14T05:23:20.843Z,34.00
2023-04-14T05:27:18.862Z,30.10
2023-04-14T05:31:16.954Z,30.30
2023-04-14T05:35:14.803Z,29.90
2023-04-14T05:39:19.848Z,29.50
2023-04-14T05:43:17.909Z,30.60
2023-04-14T05:47:15.831Z,32.20
2023-04-14T05:51:13.877Z,37.70
2023-04-14T05:55:11.806Z,35.00
2023-04-14T05:59:09.823Z,30.10
2023-04-14T06:02:47.624Z,36.90
2023-04-14T06:06:11.534Z,23.80
2023-04-14T06:09:35.486Z,33.10
2023-04-14T06:12:59.539Z,35.60
2023-04-14T06:16:23.499Z,22.50
2023-04-14T06:19:49.206Z,30.40
2023-04-14T06:26:38.183Z,23.00
2023-04-14T06:30:02.346Z,22.30
2023-04-14T06:33:26.263Z,23.80
2023-04-14T06:36:50.107Z,23.50
2023-04-14T06:40:14.437Z,31.00
2023-04-14T06:43:38.281Z,21.30
2023-04-14T06:47:02.203Z,21.90
2023-04-14T06:50:26.082Z,24.40
2023-04-14T06:53:50.014Z,22.50
2023-04-14T06:57:13.893Z,22.40
2023-04-14T07:00:38.258Z,24.00
2023-04-14T07:04:07.745Z,23.20
2023-04-14T07:07:36.651Z,24.30
2023-04-14T07:11:02.180Z,24.60
2023-04-14T07:17:50.321Z,24.10
2023-04-14T07:21:14.305Z,25.50
2023-04-14T07:24:38.167Z,23.80
2023-04-14T07:28:03.684Z,20.40
2023-04-14T07:31:28.065Z,24.00
2023-04-14T07:34:52.562Z,23.50
2023-04-14T07:38:16.665Z,27.40
2023-04-14T07:41:41.425Z,25.00
2023-04-14T07:45:05.498Z,21.10
2023-04-14T07:48:29.313Z,24.70
2023-04-14T07:51:53.170Z,24.00
2023-04-14T07:55:17.459Z,24.30
2023-04-14T07:58:41.307Z,21.50
2023-04-14T08:02:05.728Z,23.40
2023-04-14T08:05:29.727Z,24.10
2023-04-14T08:08:53.908Z,23.60
2023-04-14T08:12:19.824Z,21.70
2023-04-14T08:15:43.747Z,25.50
2023-04-14T08:19:07.822Z,24.40
2023-04-14T08:22:31.926Z,22.00
2023-04-14T08:25:55.795Z,22.10
2023-04-14T08:29:19.638Z,22.00
2023-04-14T08:32:43.968Z,21.80
2023-04-14T08:36:08.637Z,20.20
2023-04-14T08:39:32.569Z,18.20
2023-04-14T08:42:57.701Z,21.60
2023-04-14T08:46:26.451Z,20.10
2023-04-14T08:50:18.867Z,17.10
2023-04-14T08:53:46.252Z,19.10
2023-04-14T08:57:12.607Z,17.90
2023-04-14T09:00:36.397Z,18.90
2023-04-14T09:04:04.275Z,16.00
2023-04-14T09:07:30.122Z,18.70
2023-04-14T09:10:55.375Z,17.90
2023-04-14T09:14:20.538Z,18.70
2023-04-14T09:17:47.242Z,17.40
2023-04-14T09:21:49.700Z,16.60
2023-04-14T09:24:58.962Z,14.40
2023-04-14T09:28:23.342Z,15.90
2023-04-14T09:31:48.632Z,15.30
2023-04-14T09:35:14.329Z,14.50
2023-04-14T09:38:39.848Z,14.50
2023-04-14T09:42:05.177Z,16.50
2023-04-14T09:45:45.714Z,14.20
2023-04-14T09:49:09.735Z,14.90
2023-04-14T09:52:42.040Z,12.60
2023-04-14T09:56:09.676Z,12.80
2023-04-14T09:59:36.851Z,11.40
2023-04-14T10:03:01.647Z,11.60
2023-04-14T10:06:26.889Z,9.80
2023-04-14T10:09:50.718Z,10.00
2023-04-14T10:13:16.169Z,12.70
2023-04-14T10:20:04.454Z,9.30
2023-04-14T10:23:28.962Z,9.50
2023-04-14T10:26:54.720Z,9.00
2023-04-14T10:30:18.640Z,8.40
2023-04-14T10:33:43.647Z,11.60
2023-04-14T10:37:15.152Z,8.80
2023-04-14T10:41:09.176Z,7.80
2023-04-14T10:44:35.234Z,7.80
2023-04-14T10:47:59.502Z,8.00
2023-04-14T10:51:35.949Z,9.50
2023-04-14T10:55:08.213Z,7.40
2023-04-14T10:58:36.590Z,6.10
2023-04-14T11:02:00.532Z,5.80
2023-04-14T11:05:25.125Z,8.40
2023-04-14T11:08:51.371Z,15.00
2023-04-14T11:12:26.207Z,7.20
2023-04-14T11:16:07.256Z,6.50
2023-04-14T11:19:32.594Z,8.50
2023-04-14T11:22:58.994Z,5.50
2023-04-14T11:26:25.728Z,7.90
2023-04-14T11:29:50.031Z,6.90
2023-04-14T11:33:16.232Z,5.80
2023-04-14T11:36:40.410Z,8.50
2023-04-14T11:40:07.334Z,5.90
2023-04-14T11:43:31.781Z,7.30
2023-04-14T11:46:55.908Z,4.90
2023-04-14T11:50:19.993Z,4.40
2023-04-14T11:53:43.873Z,5.00
2023-04-14T11:57:12.517Z,5.50
2023-04-14T12:00:36.572Z,6.10
2023-04-14T12:04:00.648Z,4.30
2023-04-14T12:07:24.717Z,6.50
2023-04-14T12:10:48.562Z,5.00
2023-04-14T12:14:13.233Z,6.70
2023-04-14T12:17:38.722Z,4.20
2023-04-14T12:24:35.404Z,4.50
2023-04-14T12:27:59.747Z,4.30
2023-04-14T12:31:29.839Z,4.30
2023-04-14T12:34:58.741Z,3.60
2023-04-14T12:38:28.170Z,3.90
2023-04-14T12:41:52.094Z,4.50
2023-04-14T12:45:17.465Z,4.50
2023-04-14T12:52:08.850Z,6.30
2023-04-14T12:55:33.276Z,4.90
2023-04-14T12:59:01.909Z,4.80
2023-04-14T13:02:30.950Z,4.90
2023-04-14T13:05:57.475Z,5.00
2023-04-14T13:09:21.829Z,6.00
2023-04-14T13:12:45.940Z,7.40
2023-04-14T13:16:13.953Z,6.80
2023-04-14T13:19:39.537Z,6.20
2023-04-14T13:23:03.431Z,4.60
2023-04-14T13:26:34.766Z,6.10
2023-04-14T13:30:02.810Z,6.00
2023-04-14T13:33:47.317Z,4.30
2023-04-14T13:37:45.324Z,7.70
2023-04-14T13:41:43.264Z,11.50
2023-04-14T13:45:41.412Z,4.70
2023-04-14T13:49:39.313Z,6.60
2023-04-14T13:53:37.462Z,4.50
2023-04-14T13:57:35.394Z,7.50
2023-04-14T14:03:20.669Z,5.90
2023-04-14T14:07:18.464Z,4.00
2023-04-14T14:11:17.467Z,4.60
2023-04-14T14:15:15.378Z,5.50
2023-04-14T14:19:17.454Z,5.50
2023-04-14T14:23:15.364Z,7.10
2023-04-14T14:27:13.474Z,4.90
2023-04-14T14:31:11.543Z,7.70
2023-04-14T14:35:09.352Z,6.30
2023-04-14T14:39:07.404Z,10.30
2023-04-14T14:43:05.402Z,7.60
2023-04-14T14:47:03.534Z,8.00
2023-04-14T14:51:02.363Z,9.90
2023-04-14T14:55:00.298Z,9.70
2023-04-14T14:58:59.307Z,10.70
2023-04-14T15:02:57.693Z,8.20
2023-04-14T15:06:56.390Z,8.90
2023-04-14T15:10:54.280Z,9.10
2023-04-14T15:14:52.373Z,11.00
2023-04-14T15:18:50.371Z,9.20
2023-04-14T15:22:48.308Z,11.80
2023-04-14T15:26:46.345Z,10.10
2023-04-14T15:30:44.331Z,10.80
2023-04-14T15:34:43.286Z,8.50
2023-04-14T15:38:41.322Z,10.90
2023-04-14T15:42:39.303Z,7.00
2023-04-14T15:46:37.390Z,9.30
2023-04-14T15:50:35.344Z,11.40
2023-04-14T15:54:43.362Z,8.50
2023-04-14T15:58:41.355Z,7.00
2023-04-14T16:02:39.754Z,9.30
2023-04-14T16:06:37.295Z,9.70
2023-04-14T16:10:35.301Z,10.20
2023-04-14T16:14:33.240Z,9.10
2023-04-14T16:18:31.309Z,11.80
2023-04-14T16:22:29.272Z,9.10
2023-04-14T16:26:27.232Z,11.40
2023-04-14T16:30:25.202Z,9.40
2023-04-14T16:34:25.239Z,11.60
2023-04-14T16:38:23.289Z,9.10
2023-04-14T16:42:25.258Z,9.50
2023-04-14T16:46:24.365Z,9.40
2023-04-14T16:50:24.263Z,12.20
2023-04-14T16:54:22.187Z,11.90
2023-04-14T16:58:20.212Z,14.60
2023-04-14T17:02:18.290Z,11.90
2023-04-14T17:06:16.166Z,11.60
2023-04-14T17:10:14.266Z,12.40
2023-04-14T17:14:12.186Z,8.90
2023-04-14T17:18:10.341Z,12.40
2023-04-14T17:22:08.131Z,10.30
2023-04-14T17:26:06.167Z,11.50
2023-04-14T17:30:04.206Z,9.00
2023-04-14T17:34:02.402Z,11.90
2023-04-14T17:38:00.115Z,10.90
2023-04-14T17:41:58.329Z,13.60
2023-04-14T17:45:57.131Z,11.40
2023-04-14T17:49:55.107Z,12.10
2023-04-14T17:53:54.280Z,10.60
2023-04-14T17:57:57.073Z,11.10
2023-04-14T18:01:55.145Z,14.30
2023-04-14T18:05:55.177Z,12.20
2023-04-14T18:09:53.097Z,16.30
2023-04-14T18:13:51.138Z,12.50
2023-04-14T18:17:49.112Z,14.30
2023-04-14T18:21:48.068Z,11.50
2023-04-14T18:29:50.114Z,10.90
2023-04-14T18:33:49.134Z,13.90
2023-04-14T18:37:47.078Z,13.80
2023-04-14T18:41:45.081Z,11.60
2023-04-14T18:45:43.053Z,17.90
2023-04-14T18:49:41.138Z,13.80
2023-04-14T18:53:40.275Z,17.60
2023-04-14T18:57:39.137Z,12.60
2023-04-14T19:01:37.056Z,14.60
2023-04-14T19:05:36.043Z,10.60
2023-04-14T19:09:34.026Z,9.60
2023-04-14T19:13:35.089Z,16.60
2023-04-14T19:17:33.021Z,12.40
2023-04-14T19:21:32.043Z,14.80
2023-04-14T19:25:31.065Z,16.00
2023-04-14T19:29:29.323Z,14.10
2023-04-14T19:33:27.048Z,16.50
2023-04-14T19:37:26.103Z,16.90
2023-04-14T19:41:23.969Z,17.20
2023-04-14T19:45:22.094Z,15.00
2023-04-14T19:49:20.030Z,14.30
2023-04-14T19:53:17.987Z,15.30
2023-04-14T19:57:17.946Z,13.60
2023-04-14T20:01:16.084Z,13.50
2023-04-14T20:05:14.010Z,14.60
2023-04-14T20:09:12.029Z,13.30
2023-04-14T20:13:09.970Z,17.20
2023-04-14T20:17:08.040Z,14.30
2023-04-14T20:21:05.930Z,14.80
2023-04-14T20:25:04.016Z,14.50
2023-04-14T20:29:03.251Z,14.30
2023-04-14T20:33:00.975Z,17.10
2023-04-14T20:37:01.905Z,17.70
2023-04-14T20:40:59.952Z,14.00
2023-04-14T20:44:57.906Z,13.60
2023-04-14T20:48:55.887Z,16.10
2023-04-14T20:52:53.890Z,15.00
2023-04-14T20:56:51.874Z,18.60
2023-04-14T21:00:49.897Z,15.60
2023-04-14T21:04:48.029Z,16.50
2023-04-14T21:08:46.886Z,16.50
2023-04-14T21:15:00.370Z,15.10
2023-04-14T21:17:02.865Z,17.60
2023-04-14T21:21:00.923Z,14.60
2023-04-14T21:24:58.873Z,16.50
2023-04-14T21:28:56.958Z,15.90
2023-04-14T21:32:54.901Z,17.00
2023-04-14T21:36:53.856Z,20.50
2023-04-14T21:40:51.912Z,17.20
2023-04-14T21:44:49.966Z,17.00
2023-04-14T21:48:47.789Z,17.00
2023-04-14T21:52:45.822Z,18.20
2023-04-14T21:56:44.795Z,17.00
2023-04-14T22:00:43.854Z,17.30
2023-04-14T22:04:41.827Z,16.40
2023-04-14T22:08:40.899Z,19.20
2023-04-14T22:12:38.811Z,20.90
2023-04-14T22:16:36.948Z,22.50
2023-04-14T22:20:34.739Z,22.10
2023-04-14T22:24:32.877Z,22.20
2023-04-14T22:28:30.760Z,21.80
2023-04-14T22:32:28.839Z,21.60
2023-04-14T22:36:26.785Z,21.60
2023-04-14T22:40:24.770Z,25.70
2023-04-14T22:44:22.727Z,24.00
2023-04-14T22:48:21.782Z,23.10
2023-04-14T22:52:19.728Z,22.30
2023-04-14T22:56:17.804Z,22.30
2023-04-14T23:00:15.701Z,21.90
2023-04-14T23:04:13.797Z,25.10
2023-04-14T23:08:11.769Z,24.90
2023-04-14T23:12:09.721Z,23.40
2023-04-14T23:16:07.749Z,25.40
2023-04-14T23:20:05.690Z,24.20
2023-04-14T23:24:04.683Z,25.00
2023-04-14T23:28:02.798Z,26.40
2023-04-14T23:32:00.738Z,24.70
2023-04-14T23:35:58.727Z,26.60
2023-04-14T23:39:56.694Z,25.30
2023-04-14T23:43:55.701Z,28.30
2023-04-14T23:47:53.741Z,30.60
2023-04-14T23:51:51.659Z,30.40
2023-04-14T23:55:49.640Z,28.70
2023-04-14T23:59:47.673Z,31.00
